createdAt,value
2019-02-18T00:01:24.098Z,6.20
2019-02-18T00:03:53.233Z,6.30
2019-02-18T00:06:22.346Z,6.30
2019-02-18T00:08:51.496Z,6.20
2019-02-18T00:11:20.623Z,6.20
2019-02-18T00:13:49.746Z,6.20
2019-02-18T00:16:18.962Z,6.10
2019-02-18T00:18:48.095Z,6.10
2019-02-18T00:21:17.229Z,6.10
2019-02-18T00:23:46.304Z,6.10
2019-02-18T00:26:15.480Z,6.10
2019-02-18T00:28:44.656Z,6.00
2019-02-18T00:31:14.100Z,6.00
2019-02-18T00:33:43.135Z,5.90
2019-02-18T00:36:12.237Z,6.00
2019-02-18T00:38:41.405Z,6.10
2019-02-18T00:41:10.557Z,6.00
2019-02-18T00:43:39.672Z,6.10
2019-02-18T00:46:08.890Z,6.00
2019-02-18T00:48:38.272Z,6.00
2019-02-18T00:51:07.406Z,6.00
2019-02-18T00:53:36.742Z,6.00
2019-02-18T00:56:05.871Z,6.10
2019-02-18T00:58:34.944Z,6.10
2019-02-18T01:01:04.094Z,6.00
2019-02-18T01:03:33.214Z,5.80
2019-02-18T01:06:02.321Z,5.70
2019-02-18T01:08:31.530Z,5.60
2019-02-18T01:11:00.634Z,5.60
2019-02-18T01:13:29.754Z,5.50
2019-02-18T01:15:58.952Z,5.80
2019-02-18T01:18:28.118Z,5.90
2019-02-18T01:20:57.315Z,5.90
2019-02-18T01:23:26.486Z,5.90
2019-02-18T01:25:55.612Z,6.00
2019-02-18T01:28:24.715Z,6.00
2019-02-18T01:30:54.012Z,5.90
2019-02-18T01:33:23.086Z,6.00
2019-02-18T01:35:52.218Z,6.00
2019-02-18T01:38:21.261Z,6.00
2019-02-18T01:40:51.630Z,5.90
2019-02-18T01:43:20.753Z,5.90
2019-02-18T01:45:52.351Z,5.90
2019-02-18T01:48:21.451Z,5.90
2019-02-18T01:50:50.581Z,5.80
2019-02-18T01:53:19.709Z,5.80
2019-02-18T01:55:48.812Z,5.70
2019-02-18T01:58:20.229Z,5.60
2019-02-18T02:00:49.279Z,5.40
2019-02-18T02:03:18.505Z,5.30
2019-02-18T02:05:47.614Z,5.20
2019-02-18T02:08:16.717Z,5.10
2019-02-18T02:10:45.812Z,5.10
2019-02-18T02:13:31.521Z,5.00
2019-02-18T02:16:02.122Z,5.50
2019-02-18T02:18:31.311Z,5.60
2019-02-18T02:21:00.705Z,5.60
2019-02-18T02:23:32.136Z,5.50
2019-02-18T02:26:01.228Z,5.40
2019-02-18T02:28:30.378Z,5.40
2019-02-18T02:31:01.120Z,5.30
2019-02-18T02:33:30.411Z,5.20
2019-02-18T02:36:00.942Z,5.20
2019-02-18T02:38:30.075Z,5.10
2019-02-18T02:40:59.264Z,5.10
2019-02-18T02:43:28.497Z,5.10
2019-02-18T02:45:57.607Z,5.10
2019-02-18T02:48:26.898Z,5.10
2019-02-18T02:50:56.065Z,5.10
2019-02-18T02:53:25.989Z,5.20
2019-02-18T02:55:55.218Z,5.20
2019-02-18T02:58:24.350Z,5.20
2019-02-18T03:00:53.486Z,5.10
2019-02-18T03:03:22.579Z,4.90
2019-02-18T03:05:51.719Z,4.80
2019-02-18T03:08:21.149Z,4.70
2019-02-18T03:10:50.302Z,4.70
2019-02-18T03:13:19.505Z,4.70
2019-02-18T03:15:48.646Z,4.90
2019-02-18T03:18:17.910Z,5.00
2019-02-18T03:20:47.034Z,5.00
2019-02-18T03:23:16.158Z,5.00
2019-02-18T03:25:46.778Z,5.00
2019-02-18T03:29:04.243Z,4.90
2019-02-18T03:31:33.370Z,4.80
2019-02-18T03:34:12.635Z,4.80
2019-02-18T03:36:41.843Z,4.70
2019-02-18T03:39:11.073Z,4.70
2019-02-18T03:41:41.004Z,4.70
2019-02-18T03:44:10.372Z,4.70
2019-02-18T03:46:39.499Z,4.60
2019-02-18T03:49:08.651Z,4.60
2019-02-18T03:51:37.968Z,4.50
2019-02-18T03:54:07.217Z,4.60
2019-02-18T03:56:36.455Z,4.50
2019-02-18T03:59:05.643Z,4.40
2019-02-18T04:01:34.817Z,4.20
2019-02-18T04:04:03.995Z,4.40
2019-02-18T04:06:33.112Z,4.50
2019-02-18T04:09:02.289Z,4.60
2019-02-18T04:11:31.436Z,4.60
2019-02-18T04:14:00.543Z,4.70
2019-02-18T04:16:29.645Z,4.70
2019-02-18T04:18:58.817Z,4.70
2019-02-18T04:21:27.931Z,4.80
2019-02-18T04:23:57.110Z,4.90
2019-02-18T04:26:26.394Z,4.90
2019-02-18T04:28:55.537Z,4.90
2019-02-18T04:31:25.144Z,4.90
2019-02-18T04:33:54.354Z,4.90
2019-02-18T04:36:23.533Z,4.90
2019-02-18T04:38:54.434Z,4.70
2019-02-18T04:41:23.763Z,4.60
2019-02-18T04:43:52.937Z,4.60
2019-02-18T04:46:22.636Z,4.80
2019-02-18T04:48:51.743Z,4.90
2019-02-18T04:51:20.873Z,4.90
2019-02-18T04:53:50.151Z,4.90
2019-02-18T04:56:20.416Z,4.90
2019-02-18T04:58:50.607Z,4.90
2019-02-18T05:01:19.729Z,4.90
2019-02-18T05:03:48.887Z,4.90
2019-02-18T05:06:18.004Z,4.90
2019-02-18T05:08:47.123Z,4.90
2019-02-18T05:11:16.281Z,4.80
2019-02-18T05:13:46.055Z,4.80
2019-02-18T05:16:15.285Z,4.80
2019-02-18T05:18:44.469Z,4.70
2019-02-18T05:21:13.616Z,4.70
2019-02-18T05:23:42.736Z,4.70
2019-02-18T05:26:12.381Z,4.60
2019-02-18T05:28:41.435Z,4.60
2019-02-18T05:31:10.554Z,4.60
2019-02-18T05:33:39.727Z,4.60
2019-02-18T05:36:08.930Z,4.60
2019-02-18T05:38:38.018Z,4.60
2019-02-18T05:41:07.171Z,4.60
2019-02-18T05:43:38.750Z,4.60
2019-02-18T05:46:08.769Z,4.70
2019-02-18T05:48:38.256Z,4.70
2019-02-18T05:51:07.448Z,4.70
2019-02-18T05:53:36.645Z,4.60
2019-02-18T05:56:05.816Z,4.60
2019-02-18T05:58:34.911Z,4.60
2019-02-18T06:01:04.317Z,4.50
2019-02-18T06:03:33.501Z,4.50
2019-02-18T06:06:02.703Z,4.60
2019-02-18T06:08:32.044Z,4.50
2019-02-18T06:11:01.175Z,4.50
2019-02-18T06:13:30.483Z,4.50
2019-02-18T06:15:59.495Z,4.50
2019-02-18T06:18:28.616Z,4.40
2019-02-18T06:20:57.749Z,4.40
2019-02-18T06:23:26.919Z,4.30
2019-02-18T06:25:56.082Z,4.30
2019-02-18T06:28:25.256Z,4.20
2019-02-18T06:30:55.048Z,4.20
2019-02-18T06:33:24.433Z,4.20
2019-02-18T06:35:53.497Z,4.20
2019-02-18T06:38:22.676Z,4.10
2019-02-18T06:40:52.128Z,4.20
2019-02-18T06:43:21.249Z,4.20
2019-02-18T06:46:17.762Z,4.10
2019-02-18T06:48:52.891Z,4.10
2019-02-18T06:51:22.339Z,4.20
2019-02-18T06:53:51.577Z,4.20
2019-02-18T06:56:28.831Z,4.20
2019-02-18T06:59:03.498Z,4.20
2019-02-18T07:02:00.525Z,4.30
2019-02-18T07:04:40.484Z,4.40
2019-02-18T07:07:27.429Z,4.30
2019-02-18T07:10:03.336Z,4.30
2019-02-18T07:12:36.194Z,4.30
2019-02-18T07:15:05.898Z,4.30
2019-02-18T07:17:35.158Z,4.20
2019-02-18T07:20:04.707Z,4.30
2019-02-18T07:22:34.430Z,4.40
2019-02-18T07:25:03.585Z,4.50
2019-02-18T07:27:33.938Z,4.40
2019-02-18T07:30:03.114Z,4.30
2019-02-18T07:32:32.269Z,4.30
2019-02-18T07:35:01.641Z,4.30
2019-02-18T07:37:30.783Z,4.30
2019-02-18T07:40:02.289Z,4.60
2019-02-18T07:42:31.619Z,4.70
2019-02-18T07:45:00.785Z,4.80
2019-02-18T07:47:29.939Z,4.90
2019-02-18T07:50:00.009Z,4.90
2019-02-18T07:52:29.967Z,5.00
2019-02-18T07:54:59.437Z,5.20
2019-02-18T07:57:28.589Z,5.30
2019-02-18T07:59:57.715Z,5.40
2019-02-18T08:02:26.819Z,5.30
2019-02-18T08:04:55.944Z,5.30
2019-02-18T08:07:25.159Z,5.30
2019-02-18T08:09:54.695Z,5.70
2019-02-18T08:12:23.805Z,5.80
2019-02-18T08:14:52.922Z,5.90
2019-02-18T08:17:22.064Z,6.10
2019-02-18T08:19:51.142Z,6.10
2019-02-18T08:22:20.315Z,6.30
2019-02-18T08:24:49.467Z,6.40
2019-02-18T08:27:18.588Z,6.50
2019-02-18T08:29:47.736Z,6.60
2019-02-18T08:32:16.964Z,6.60
2019-02-18T08:34:47.816Z,6.70
2019-02-18T08:37:17.008Z,6.80
2019-02-18T08:39:46.114Z,6.90
2019-02-18T08:42:15.299Z,7.10
2019-02-18T08:44:44.430Z,7.00
2019-02-18T08:47:13.598Z,7.10
2019-02-18T08:49:42.738Z,7.20
2019-02-18T08:52:12.046Z,7.40
2019-02-18T08:54:41.163Z,7.60
2019-02-18T08:57:11.182Z,7.70
2019-02-18T08:59:40.638Z,7.90
2019-02-18T09:02:12.687Z,7.90
2019-02-18T09:04:41.853Z,8.10
2019-02-18T09:07:11.043Z,8.20
2019-02-18T09:09:40.178Z,8.40
2019-02-18T09:12:10.731Z,8.40
2019-02-18T09:14:39.887Z,8.50
2019-02-18T09:17:10.118Z,8.60
2019-02-18T09:19:39.293Z,8.70
2019-02-18T09:22:26.349Z,8.90
2019-02-18T09:25:01.918Z,9.30
2019-02-18T09:27:31.024Z,9.50
2019-02-18T09:30:00.310Z,9.70
2019-02-18T09:32:29.368Z,9.60
2019-02-18T09:35:01.918Z,9.20
2019-02-18T09:37:29.660Z,9.30
2019-02-18T09:39:59.176Z,9.80
2019-02-18T09:42:28.309Z,10.10
2019-02-18T09:44:59.175Z,10.20
2019-02-18T09:47:29.338Z,10.40
2019-02-18T09:49:59.834Z,10.50
2019-02-18T09:52:28.978Z,10.60
2019-02-18T09:54:59.926Z,10.80
2019-02-18T09:57:30.540Z,10.90
2019-02-18T09:59:59.634Z,11.10
2019-02-18T10:02:28.784Z,11.30
2019-02-18T10:04:57.900Z,11.10
2019-02-18T10:07:27.268Z,10.70
2019-02-18T10:09:56.454Z,10.60
2019-02-18T10:12:25.589Z,10.90
2019-02-18T10:14:54.699Z,11.10
2019-02-18T10:17:23.850Z,11.30
2019-02-18T10:19:53.073Z,11.50
2019-02-18T10:22:22.437Z,11.50
2019-02-18T10:24:51.676Z,11.80
2019-02-18T10:27:23.765Z,12.00
2019-02-18T10:29:54.653Z,11.20
2019-02-18T10:32:24.055Z,11.10
2019-02-18T10:34:54.488Z,11.10
2019-02-18T10:37:23.583Z,11.20
2019-02-18T10:39:52.686Z,11.70
2019-02-18T10:42:21.839Z,11.70
2019-02-18T10:44:51.007Z,11.80
2019-02-18T10:47:21.671Z,12.00
2019-02-18T10:49:53.251Z,12.20
2019-02-18T10:52:25.001Z,12.50
2019-02-18T10:54:55.508Z,12.60
2019-02-18T10:57:25.013Z,12.40
2019-02-18T10:59:54.357Z,11.80
2019-02-18T11:02:24.565Z,11.90
2019-02-18T11:04:53.750Z,12.40
2019-02-18T11:07:26.117Z,12.50
2019-02-18T11:09:55.725Z,12.70
2019-02-18T11:12:25.240Z,12.80
2019-02-18T11:14:54.366Z,12.80
2019-02-18T11:17:23.904Z,12.80
2019-02-18T11:19:52.968Z,12.70
2019-02-18T11:22:22.452Z,12.10
2019-02-18T11:24:53.974Z,12.00
2019-02-18T11:27:23.170Z,12.00
2019-02-18T11:29:52.676Z,12.30
2019-02-18T11:32:21.755Z,12.30
2019-02-18T11:34:51.375Z,12.30
2019-02-18T11:37:20.458Z,12.30
2019-02-18T11:39:49.512Z,12.40
2019-02-18T11:42:23.317Z,12.40
2019-02-18T11:44:53.497Z,12.40
2019-02-18T11:47:22.615Z,12.00
2019-02-18T11:49:51.751Z,12.00
2019-02-18T11:52:20.959Z,12.10
2019-02-18T11:54:50.099Z,12.30
2019-02-18T11:57:21.233Z,12.40
2019-02-18T11:59:50.171Z,12.40
2019-02-18T12:02:19.684Z,12.40
2019-02-18T12:04:48.896Z,12.50
2019-02-18T12:07:19.131Z,12.60
2019-02-18T12:09:48.376Z,12.60
2019-02-18T12:12:17.576Z,12.60
2019-02-18T12:14:46.932Z,12.40
2019-02-18T12:19:47.394Z,12.70
2019-02-18T12:22:16.528Z,12.70
2019-02-18T12:24:45.616Z,12.70
2019-02-18T12:27:17.952Z,12.70
2019-02-18T12:29:47.126Z,12.60
2019-02-18T12:32:16.596Z,12.70
2019-02-18T12:34:45.796Z,12.80
2019-02-18T12:37:15.060Z,12.80
2019-02-18T12:39:44.196Z,12.90
2019-02-18T12:42:13.333Z,12.90
2019-02-18T12:44:42.511Z,12.90
2019-02-18T12:47:11.993Z,12.90
2019-02-18T12:49:41.199Z,12.90
2019-02-18T12:52:12.430Z,12.90
2019-02-18T12:54:41.697Z,12.80
2019-02-18T12:57:12.271Z,12.60
2019-02-18T12:59:41.511Z,12.70
2019-02-18T13:02:12.490Z,12.80
2019-02-18T13:04:43.377Z,12.70
2019-02-18T13:07:12.574Z,12.70
2019-02-18T13:09:41.657Z,12.90
2019-02-18T13:12:10.963Z,13.10
2019-02-18T13:14:40.177Z,13.10
2019-02-18T13:17:10.351Z,13.10
2019-02-18T13:19:42.850Z,13.10
2019-02-18T13:22:14.138Z,13.10
2019-02-18T13:24:43.322Z,13.10
2019-02-18T13:27:12.780Z,13.00
2019-02-18T13:29:42.994Z,12.80
2019-02-18T13:32:12.198Z,13.00
2019-02-18T13:34:41.690Z,13.00
2019-02-18T13:37:13.666Z,13.10
2019-02-18T13:39:43.114Z,13.30
2019-02-18T13:42:12.444Z,13.30
2019-02-18T13:44:41.662Z,13.30
2019-02-18T13:47:10.808Z,13.30
2019-02-18T13:49:42.027Z,13.30
2019-02-18T13:52:11.436Z,13.20
2019-02-18T13:54:40.634Z,13.40
2019-02-18T13:57:10.406Z,13.50
2019-02-18T13:59:39.679Z,13.50
2019-02-18T14:02:09.092Z,13.60
2019-02-18T14:04:38.596Z,13.40
2019-02-18T14:07:07.799Z,13.50
2019-02-18T14:09:36.907Z,13.50
2019-02-18T14:12:15.889Z,13.60
2019-02-18T14:14:39.288Z,13.50
2019-02-18T14:17:08.498Z,13.50
2019-02-18T14:19:37.619Z,13.60
2019-02-18T14:22:08.123Z,13.70
2019-02-18T14:24:37.309Z,13.90
2019-02-18T14:27:06.414Z,13.90
2019-02-18T14:29:35.691Z,13.90
2019-02-18T14:32:05.173Z,13.90
2019-02-18T14:34:34.362Z,14.10
2019-02-18T14:37:03.685Z,13.80
2019-02-18T14:39:32.998Z,13.90
2019-02-18T14:42:04.332Z,14.00
2019-02-18T14:44:33.548Z,14.30
2019-02-18T14:47:03.322Z,14.50
2019-02-18T14:49:32.586Z,14.60
2019-02-18T14:52:01.739Z,14.70
2019-02-18T14:54:30.931Z,14.80
2019-02-18T14:57:00.114Z,14.80
2019-02-18T14:59:29.288Z,14.90
2019-02-18T15:01:58.814Z,14.90
2019-02-18T15:04:27.942Z,14.90
2019-02-18T15:06:57.182Z,14.90
2019-02-18T15:09:26.480Z,14.60
2019-02-18T15:11:55.711Z,14.80
2019-02-18T15:14:24.924Z,14.00
2019-02-18T15:16:54.313Z,13.80
2019-02-18T15:19:23.471Z,13.90
2019-02-18T15:21:52.731Z,14.20
2019-02-18T15:24:21.927Z,14.30
2019-02-18T15:26:51.207Z,14.40
2019-02-18T15:29:20.486Z,14.40
2019-02-18T15:31:50.057Z,14.30
2019-02-18T15:34:19.186Z,14.20
2019-02-18T15:36:48.335Z,14.20
2019-02-18T15:39:19.778Z,14.10
2019-02-18T15:41:48.973Z,14.10
2019-02-18T15:44:18.609Z,14.00
2019-02-18T15:46:48.184Z,13.90
2019-02-18T15:49:17.428Z,12.60
2019-02-18T15:51:47.804Z,12.30
2019-02-18T15:54:17.016Z,12.50
2019-02-18T15:56:46.236Z,12.80
2019-02-18T15:59:16.082Z,12.90
2019-02-18T16:01:45.323Z,12.90
2019-02-18T16:04:14.450Z,12.90
2019-02-18T16:06:43.681Z,12.60
2019-02-18T16:09:12.876Z,12.00
2019-02-18T16:11:42.073Z,11.80
2019-02-18T16:14:11.278Z,11.70
2019-02-18T16:16:40.396Z,11.80
2019-02-18T16:19:09.604Z,12.00
2019-02-18T16:21:38.883Z,12.10
2019-02-18T16:24:08.094Z,12.10
2019-02-18T16:26:37.267Z,12.10
2019-02-18T16:29:06.696Z,11.70
2019-02-18T16:31:36.151Z,11.30
2019-02-18T16:34:05.856Z,11.20
2019-02-18T16:36:36.869Z,11.10
2019-02-18T16:39:07.202Z,11.20
2019-02-18T16:41:36.385Z,11.20
2019-02-18T16:44:06.206Z,11.10
2019-02-18T16:46:35.931Z,10.90
2019-02-18T16:49:05.425Z,10.80
2019-02-18T16:51:35.039Z,10.10
2019-02-18T16:54:12.341Z,9.80
2019-02-18T16:56:42.247Z,9.70
2019-02-18T16:59:11.511Z,9.60
2019-02-18T17:01:40.752Z,9.50
2019-02-18T17:04:09.903Z,9.50
2019-02-18T17:06:39.155Z,9.70
2019-02-18T17:09:12.786Z,9.70
2019-02-18T17:11:42.536Z,9.70
2019-02-18T17:14:11.768Z,9.60
2019-02-18T17:16:41.104Z,9.10
2019-02-18T17:19:10.307Z,9.00
2019-02-18T17:21:39.550Z,8.80
2019-02-18T17:24:10.820Z,8.80
2019-02-18T17:26:41.448Z,8.70
2019-02-18T17:29:10.776Z,8.60
2019-02-18T17:31:39.952Z,8.60
2019-02-18T17:34:09.970Z,8.50
2019-02-18T17:36:39.168Z,8.50
2019-02-18T17:39:10.121Z,8.60
2019-02-18T17:41:39.542Z,8.70
2019-02-18T17:44:08.664Z,8.60
2019-02-18T17:46:38.983Z,8.70
2019-02-18T17:49:13.001Z,8.60
2019-02-18T17:51:42.368Z,8.30
2019-02-18T17:54:12.248Z,8.20
2019-02-18T17:56:44.073Z,8.10
2019-02-18T17:59:15.750Z,8.00
2019-02-18T18:01:45.903Z,7.90
2019-02-18T18:04:15.126Z,8.00
2019-02-18T18:06:44.573Z,7.90
2019-02-18T18:09:14.068Z,7.90
2019-02-18T18:11:43.282Z,7.70
2019-02-18T18:14:12.492Z,7.70
2019-02-18T18:16:41.809Z,7.70
2019-02-18T18:19:10.922Z,7.60
2019-02-18T18:21:40.278Z,7.60
2019-02-18T18:24:09.508Z,7.50
2019-02-18T18:26:40.191Z,7.60
2019-02-18T18:29:11.275Z,7.60
2019-02-18T18:31:41.807Z,7.80
2019-02-18T18:34:16.575Z,7.70
2019-02-18T18:36:46.078Z,7.60
2019-02-18T18:39:15.342Z,7.50
2019-02-18T18:41:44.498Z,7.30
2019-02-18T18:44:14.069Z,7.10
2019-02-18T18:46:44.000Z,7.10
2019-02-18T18:49:13.154Z,6.90
2019-02-18T18:51:45.052Z,6.80
2019-02-18T18:54:14.216Z,6.80
2019-02-18T18:56:43.398Z,6.80
2019-02-18T18:59:12.485Z,6.80
2019-02-18T19:01:41.612Z,6.80
2019-02-18T19:04:11.353Z,6.60
2019-02-18T19:06:40.584Z,6.60
2019-02-18T19:09:09.812Z,6.70
2019-02-18T19:11:39.251Z,6.80
2019-02-18T19:14:08.437Z,6.80
2019-02-18T19:16:37.585Z,6.80
2019-02-18T19:19:07.090Z,6.80
2019-02-18T19:21:36.322Z,6.70
2019-02-18T19:24:05.514Z,6.60
2019-02-18T19:26:34.703Z,6.50
2019-02-18T19:29:04.193Z,6.40
2019-02-18T19:31:33.295Z,6.40
2019-02-18T19:34:02.481Z,6.60
2019-02-18T19:36:32.410Z,6.70
2019-02-18T19:39:03.461Z,6.60
2019-02-18T19:41:35.528Z,6.60
2019-02-18T19:44:05.150Z,6.60
2019-02-18T19:46:34.662Z,6.60
2019-02-18T19:49:03.828Z,6.50
2019-02-18T19:51:33.004Z,6.50
2019-02-18T19:54:02.449Z,6.40
2019-02-18T19:56:32.812Z,6.30
2019-02-18T19:59:01.964Z,6.40
2019-02-18T20:01:31.376Z,6.40
2019-02-18T20:04:00.754Z,7.00
2019-02-18T20:06:30.040Z,7.10
2019-02-18T20:08:59.298Z,7.10
2019-02-18T20:11:31.630Z,7.10
2019-02-18T20:14:01.088Z,7.10
2019-02-18T20:16:30.272Z,7.10
2019-02-18T20:18:59.515Z,7.20
2019-02-18T20:21:28.683Z,7.10
2019-02-18T20:23:57.820Z,6.90
2019-02-18T20:26:27.017Z,6.90
2019-02-18T20:28:56.631Z,6.90
2019-02-18T20:31:28.071Z,6.90
2019-02-18T20:33:57.031Z,7.00
2019-02-18T20:36:26.179Z,7.00
2019-02-18T20:38:55.361Z,7.40
2019-02-18T20:41:24.516Z,7.50
2019-02-18T20:43:53.678Z,7.50
2019-02-18T20:46:22.794Z,7.50
2019-02-18T20:48:56.295Z,7.50
2019-02-18T20:51:25.237Z,7.50
2019-02-18T20:53:56.658Z,7.60
2019-02-18T20:56:26.432Z,7.40
2019-02-18T20:58:55.918Z,7.50
2019-02-18T21:01:25.553Z,7.60
2019-02-18T21:03:54.884Z,7.60
2019-02-18T21:06:24.143Z,7.60
2019-02-18T21:08:53.306Z,7.50
2019-02-18T21:11:22.902Z,7.60
2019-02-18T21:13:52.110Z,7.60
2019-02-18T21:16:21.260Z,7.70
2019-02-18T21:18:50.742Z,7.70
2019-02-18T21:21:20.554Z,7.60
2019-02-18T21:23:50.505Z,7.60
2019-02-18T21:26:19.996Z,7.60
2019-02-18T21:28:49.477Z,7.60
2019-02-18T21:31:19.029Z,7.70
2019-02-18T21:33:49.943Z,7.70
2019-02-18T21:36:19.721Z,7.70
2019-02-18T21:38:48.850Z,7.60
2019-02-18T21:41:19.523Z,7.60
2019-02-18T21:43:48.897Z,7.60
2019-02-18T21:46:18.259Z,7.50
2019-02-18T21:48:47.488Z,7.50
2019-02-18T21:51:16.674Z,7.60
2019-02-18T21:53:46.158Z,7.60
2019-02-18T21:56:15.289Z,7.70
2019-02-18T21:58:47.033Z,7.70
2019-02-18T22:01:20.424Z,7.70
2019-02-18T22:03:49.894Z,7.60
2019-02-18T22:06:20.802Z,7.60
2019-02-18T22:08:51.059Z,7.60
2019-02-18T22:11:24.093Z,7.60
2019-02-18T22:13:53.206Z,7.50
2019-02-18T22:16:22.417Z,7.50
2019-02-18T22:18:51.623Z,7.50
2019-02-18T22:21:20.748Z,7.50
2019-02-18T22:23:49.876Z,7.70
2019-02-18T22:26:19.001Z,7.60
2019-02-18T22:28:48.269Z,7.50
2019-02-18T22:31:17.516Z,7.40
2019-02-18T22:33:46.642Z,7.40
2019-02-18T22:36:15.918Z,7.40
2019-02-18T22:38:45.266Z,7.40
2019-02-18T22:41:14.470Z,7.40
2019-02-18T22:43:43.674Z,7.40
2019-02-18T22:46:12.889Z,7.30
2019-02-18T22:48:42.117Z,7.30
2019-02-18T22:51:11.293Z,7.30
2019-02-18T22:53:40.887Z,7.30
2019-02-18T22:56:11.011Z,7.30
2019-02-18T22:58:40.231Z,7.30
2019-02-18T23:01:10.125Z,7.30
2019-02-18T23:03:39.375Z,7.20
2019-02-18T23:06:08.617Z,7.20
2019-02-18T23:08:37.819Z,7.20
2019-02-18T23:11:07.401Z,7.20
2019-02-18T23:13:36.983Z,7.20
2019-02-18T23:16:06.076Z,7.10
2019-02-18T23:18:38.234Z,7.10
2019-02-18T23:21:07.853Z,7.10
2019-02-18T23:23:40.402Z,7.10
2019-02-18T23:26:09.604Z,7.10
2019-02-18T23:28:38.822Z,7.00
2019-02-18T23:31:08.048Z,7.00
2019-02-18T23:33:37.234Z,7.10
2019-02-18T23:36:06.455Z,7.10
2019-02-18T23:38:35.626Z,7.00
2019-02-18T23:41:04.768Z,6.90
2019-02-18T23:43:33.962Z,6.90
2019-02-18T23:46:03.180Z,6.90
2019-02-18T23:48:33.393Z,6.90
2019-02-18T23:51:02.762Z,6.90
2019-02-18T23:53:31.911Z,6.90
2019-02-18T23:56:01.029Z,7.00
2019-02-18T23:58:30.181Z,6.90
